Time,TemperatureF,DewpointF,PressureIn,WindDirection,WindDirectionDegrees,WindSpeedMPH,WindSpeedGustMPH,Humidity,HourlyPrecipIn,Conditions,Clouds,dailyrainin,SolarRadiationWatts/m^2,SoftwareType,DateUTC
2013-06-30 00:02:00,89.0,56.0,-100.00,ENE,77,8.0,11.0,33,0.00,,,0.00,0.000000,,2013-06-30 05:02:00,
2013-06-30 00:34:00,86.0,57.0,-100.00,ENE,78,8.0,13.0,38,0.00,,,0.00,0.000000,,2013-06-30 05:34:00,
2013-06-30 00:43:00,86.0,57.0,-100.00,ENE,78,8.0,13.0,38,0.00,,,0.00,0.000000,,2013-06-30 05:43:00,
2013-06-30 00:53:00,86.0,57.0,-100.00,ENE,78,8.0,13.0,38,0.00,,,0.00,0.000000,,2013-06-30 05:53:00,
2013-06-30 01:02:00,86.0,57.0,-100.00,ENE,78,8.0,13.0,38,0.00,,,0.00,0.000000,,2013-06-30 06:02:00,
2013-06-30 01:34:00,85.0,59.0,-100.00,East,88,8.0,12.0,41,0.00,,,0.00,0.000000,,2013-06-30 06:34:00,
2013-06-30 01:43:00,85.0,59.0,-100.00,East,88,8.0,12.0,41,0.00,,,0.00,0.000000,,2013-06-30 06:43:00,
2013-06-30 01:53:00,85.0,59.0,-100.00,East,88,8.0,12.0,41,0.00,,,0.00,0.000000,,2013-06-30 06:53:00,
2013-06-30 02:02:00,85.0,59.0,-100.00,East,88,8.0,12.0,41,0.00,,,0.00,0.000000,,2013-06-30 07:02:00,
2013-06-30 02:33:00,83.0,58.0,-100.00,East,86,8.0,12.0,42,0.00,,,0.00,0.000000,,2013-06-30 07:33:00,
2013-06-30 02:44:00,83.0,58.0,-100.00,East,86,8.0,12.0,42,0.00,,,0.00,0.000000,,2013-06-30 07:44:00,
2013-06-30 02:53:00,83.0,58.0,-100.00,East,86,8.0,12.0,42,0.00,,,0.00,0.000000,,2013-06-30 07:53:00,
2013-06-30 03:02:00,83.0,58.0,-100.00,East,86,8.0,12.0,42,0.00,,,0.00,0.000000,,2013-06-30 08:02:00,
2013-06-30 03:34:00,81.0,56.0,-100.00,East,88,8.0,11.0,43,0.00,,,0.00,0.000000,,2013-06-30 08:34:00,
2013-06-30 03:42:00,81.0,56.0,-100.00,East,88,8.0,11.0,43,0.00,,,0.00,0.000000,,2013-06-30 08:42:00,
2013-06-30 03:53:00,81.0,56.0,-100.00,East,88,8.0,11.0,43,0.00,,,0.00,0.000000,,2013-06-30 08:53:00,
2013-06-30 04:01:00,81.0,56.0,-100.00,East,88,8.0,11.0,43,0.00,,,0.00,0.000000,,2013-06-30 09:01:00,
2013-06-30 04:34:00,79.0,56.0,-100.00,SE,130,3.0,9.0,46,0.00,,,0.00,0.000000,,2013-06-30 09:34:00,
2013-06-30 04:43:00,79.0,56.0,-100.00,SE,130,3.0,9.0,46,0.00,,,0.00,0.000000,,2013-06-30 09:43:00,
2013-06-30 04:53:00,79.0,56.0,-100.00,SE,130,3.0,9.0,46,0.00,,,0.00,0.000000,,2013-06-30 09:53:00,
2013-06-30 05:02:00,79.0,56.0,-100.00,SE,130,3.0,9.0,46,0.00,,,0.00,0.000000,,2013-06-30 10:02:00,
2013-06-30 06:02:00,70.0,64.0,-100.00,NNW,338,19.0,40.0,80,0.12,,,0.12,0.000000,,2013-06-30 11:02:00,
2013-06-30 06:33:00,71.0,67.0,-100.00,North,9,8.0,26.0,87,0.17,,,0.29,0.000000,,2013-06-30 11:33:00,
2013-06-30 06:43:00,71.0,67.0,-100.00,North,9,8.0,26.0,87,0.17,,,0.29,0.000000,,2013-06-30 11:43:00,
2013-06-30 06:53:00,71.0,67.0,-100.00,North,9,8.0,26.0,87,0.17,,,0.29,0.000000,,2013-06-30 11:53:00,
2013-06-30 07:02:00,71.0,67.0,-100.00,North,9,8.0,26.0,87,0.17,,,0.29,0.000000,,2013-06-30 12:02:00,
2013-06-30 07:33:00,69.0,66.0,-100.00,East,101,9.0,14.0,91,0.13,,,0.42,0.000000,,2013-06-30 12:33:00,
2013-06-30 07:43:00,69.0,66.0,-100.00,East,101,9.0,14.0,91,0.13,,,0.42,0.000000,,2013-06-30 12:43:00,
2013-06-30 07:52:00,69.0,66.0,-100.00,East,101,9.0,14.0,91,0.13,,,0.42,0.000000,,2013-06-30 12:52:00,
2013-06-30 08:02:00,69.0,66.0,-100.00,East,101,9.0,14.0,91,0.13,,,0.42,0.000000,,2013-06-30 13:02:00,
2013-06-30 08:34:00,69.0,67.0,-100.00,ESE,121,11.0,16.0,92,0.09,,,0.51,21.000000,,2013-06-30 13:34:00,
2013-06-30 08:44:00,69.0,67.0,-100.00,ESE,121,11.0,16.0,92,0.09,,,0.51,21.000000,,2013-06-30 13:44:00,
2013-06-30 08:53:00,69.0,67.0,-100.00,ESE,121,11.0,16.0,92,0.09,,,0.51,21.000000,,2013-06-30 13:53:00,
2013-06-30 09:02:00,69.0,67.0,-100.00,ESE,121,11.0,16.0,92,0.09,,,0.51,21.000000,,2013-06-30 14:02:00,
2013-06-30 09:33:00,72.0,68.0,-100.00,ESE,113,7.0,15.0,87,0.00,,,0.51,153.000000,,2013-06-30 14:33:00,
2013-06-30 09:44:00,72.0,68.0,-100.00,ESE,113,7.0,15.0,87,0.00,,,0.51,153.000000,,2013-06-30 14:44:00,
2013-06-30 09:52:00,72.0,68.0,-100.00,ESE,113,7.0,15.0,87,0.00,,,0.51,153.000000,,2013-06-30 14:52:00,
2013-06-30 10:02:00,72.0,68.0,-100.00,ESE,113,7.0,15.0,87,0.00,,,0.51,153.000000,,2013-06-30 15:02:00,
2013-06-30 10:35:00,77.0,69.0,-100.00,SSW,208,4.0,10.0,76,0.00,,,0.51,363.000000,,2013-06-30 15:35:00,
2013-06-30 10:44:00,77.0,69.0,-100.00,SSW,208,4.0,10.0,76,0.00,,,0.51,363.000000,,2013-06-30 15:44:00,
2013-06-30 10:53:00,77.0,69.0,-100.00,SSW,208,4.0,10.0,76,0.00,,,0.51,363.000000,,2013-06-30 15:53:00,
2013-06-30 11:01:00,77.0,69.0,-100.00,SSW,208,4.0,10.0,76,0.00,,,0.51,363.000000,,2013-06-30 16:01:00,
2013-06-30 12:34:00,81.0,66.0,-100.00,ESE,106,5.0,12.0,61,-99.99,,,0.51,479.000000,,2013-06-30 17:34:00,
2013-06-30 12:43:00,81.0,66.0,-100.00,ESE,106,5.0,12.0,61,-99.99,,,0.51,479.000000,,2013-06-30 17:43:00,
2013-06-30 12:52:00,81.0,66.0,-100.00,ESE,106,5.0,12.0,61,-99.99,,,0.51,479.000000,,2013-06-30 17:52:00,
2013-06-30 13:02:00,81.0,66.0,-100.00,ESE,106,5.0,12.0,61,-99.99,,,0.51,479.000000,,2013-06-30 18:02:00,
2013-06-30 13:34:00,85.0,66.0,-100.00,East,80,4.0,8.0,54,0.00,,,0.51,605.000000,,2013-06-30 18:34:00,
2013-06-30 13:43:00,85.0,66.0,-100.00,East,80,4.0,8.0,54,0.00,,,0.51,605.000000,,2013-06-30 18:43:00,
2013-06-30 13:53:00,85.0,66.0,-100.00,East,80,4.0,8.0,54,0.00,,,0.51,605.000000,,2013-06-30 18:53:00,
2013-06-30 14:01:00,85.0,66.0,-100.00,East,80,4.0,8.0,54,0.00,,,0.51,605.000000,,2013-06-30 19:01:00,
2013-06-30 14:33:00,86.0,66.0,-100.00,NNW,329,5.0,9.0,51,0.00,,,0.51,746.000000,,2013-06-30 19:33:00,
2013-06-30 14:43:00,86.0,66.0,-100.00,NNW,329,5.0,9.0,51,0.00,,,0.51,746.000000,,2013-06-30 19:43:00,
2013-06-30 14:53:00,86.0,66.0,-100.00,NNW,329,5.0,9.0,51,0.00,,,0.51,746.000000,,2013-06-30 19:53:00,
2013-06-30 15:01:00,86.0,66.0,-100.00,NNW,329,5.0,9.0,51,0.00,,,0.51,746.000000,,2013-06-30 20:01:00,
2013-06-30 15:34:00,89.0,67.0,-100.00,West,260,6.0,9.0,49,0.00,,,0.51,1022.000000,,2013-06-30 20:34:00,
2013-06-30 15:42:00,89.0,67.0,-100.00,West,260,6.0,9.0,49,0.00,,,0.51,1022.000000,,2013-06-30 20:42:00,
2013-06-30 15:52:00,89.0,67.0,-100.00,West,260,6.0,9.0,49,0.00,,,0.51,1022.000000,,2013-06-30 20:52:00,
2013-06-30 16:01:00,89.0,67.0,-100.00,West,260,6.0,9.0,49,0.00,,,0.51,1022.000000,,2013-06-30 21:01:00,
2013-06-30 16:34:00,90.0,63.0,-100.00,WSW,256,5.0,10.0,41,0.00,,,0.51,902.000000,,2013-06-30 21:34:00,
2013-06-30 16:43:00,90.0,63.0,-100.00,WSW,256,5.0,10.0,41,0.00,,,0.51,902.000000,,2013-06-30 21:43:00,
2013-06-30 16:53:00,90.0,63.0,-100.00,WSW,256,5.0,10.0,41,0.00,,,0.51,902.000000,,2013-06-30 21:53:00,
2013-06-30 17:01:00,90.0,63.0,-100.00,WSW,256,5.0,10.0,41,0.00,,,0.51,902.000000,,2013-06-30 22:01:00,
2013-06-30 17:34:00,91.0,61.0,-100.00,WNW,301,4.0,9.0,37,0.00,,,0.51,748.000000,,2013-06-30 22:34:00,
2013-06-30 17:43:00,91.0,61.0,-100.00,WNW,301,4.0,9.0,37,0.00,,,0.51,748.000000,,2013-06-30 22:43:00,
2013-06-30 17:53:00,91.0,61.0,-100.00,WNW,301,4.0,9.0,37,0.00,,,0.51,748.000000,,2013-06-30 22:53:00,
2013-06-30 18:01:00,91.0,61.0,-100.00,WNW,301,4.0,9.0,37,0.00,,,0.51,748.000000,,2013-06-30 23:01:00,
2013-06-30 18:33:00,87.0,66.0,-100.00,East,94,7.0,17.0,50,0.00,,,0.51,238.000000,,2013-06-30 23:33:00,
2013-06-30 18:44:00,87.0,66.0,-100.00,East,94,7.0,17.0,50,0.00,,,0.51,238.000000,,2013-06-30 23:44:00,
2013-06-30 18:53:00,87.0,66.0,-100.00,East,94,7.0,17.0,50,0.00,,,0.51,238.000000,,2013-06-30 23:53:00,
2013-06-30 19:01:00,87.0,66.0,-100.00,East,94,7.0,17.0,50,0.00,,,0.51,238.000000,,2013-07-01 00:01:00,
2013-06-30 19:33:00,89.0,64.0,-100.00,East,83,5.0,9.0,44,0.00,,,0.51,446.000000,,2013-07-01 00:33:00,
2013-06-30 19:42:00,89.0,64.0,-100.00,East,83,5.0,9.0,44,0.00,,,0.51,446.000000,,2013-07-01 00:42:00,
2013-06-30 19:52:00,89.0,64.0,-100.00,East,83,5.0,9.0,44,0.00,,,0.51,446.000000,,2013-07-01 00:52:00,
2013-06-30 20:01:00,89.0,64.0,-100.00,East,83,5.0,9.0,44,0.00,,,0.51,446.000000,,2013-07-01 01:01:00,
2013-06-30 20:34:00,88.0,62.0,-100.00,East,97,3.0,6.0,42,0.00,,,0.51,166.000000,,2013-07-01 01:34:00,
2013-06-30 20:43:00,88.0,62.0,-100.00,East,97,3.0,6.0,42,0.00,,,0.51,166.000000,,2013-07-01 01:43:00,
2013-06-30 20:52:00,88.0,62.0,-100.00,East,97,3.0,6.0,42,0.00,,,0.51,166.000000,,2013-07-01 01:52:00,
2013-06-30 21:02:00,88.0,62.0,-100.00,East,97,3.0,6.0,42,0.00,,,0.51,166.000000,,2013-07-01 02:02:00,
2013-06-30 21:33:00,83.0,64.0,-100.00,East,101,2.0,5.0,53,0.00,,,0.51,16.000000,,2013-07-01 02:33:00,
2013-06-30 21:44:00,83.0,64.0,-100.00,East,101,2.0,5.0,53,0.00,,,0.51,16.000000,,2013-07-01 02:44:00,
2013-06-30 21:54:00,83.0,64.0,-100.00,East,101,2.0,5.0,53,0.00,,,0.51,16.000000,,2013-07-01 02:54:00,
2013-06-30 22:01:00,83.0,64.0,-100.00,East,101,2.0,5.0,53,0.00,,,0.51,16.000000,,2013-07-01 03:01:00,
2013-06-30 22:33:00,81.0,67.0,-100.00,NE,55,2.0,5.0,63,0.00,,,0.51,0.000000,,2013-07-01 03:33:00,
2013-06-30 22:43:00,81.0,67.0,-100.00,NE,55,2.0,5.0,63,0.00,,,0.51,0.000000,,2013-07-01 03:43:00,
2013-06-30 22:52:00,81.0,67.0,-100.00,NE,55,2.0,5.0,63,0.00,,,0.51,0.000000,,2013-07-01 03:52:00,
2013-06-30 23:01:00,81.0,67.0,-100.00,NE,55,2.0,5.0,63,0.00,,,0.51,0.000000,,2013-07-01 04:01:00,
2013-06-30 23:32:00,79.0,70.0,-100.00,NNE,18,5.0,9.0,73,0.00,,,-99.99,0.000000,,2013-07-01 04:32:00,
2013-06-30 23:43:00,79.0,70.0,-100.00,NNE,18,5.0,9.0,73,0.00,,,-99.99,0.000000,,2013-07-01 04:43:00,
2013-06-30 23:53:00,79.0,70.0,-100.00,NNE,18,5.0,9.0,73,0.00,,,-99.99,0.000000,,2013-07-01 04:53:00,